Scroll down
FLIGHT INFORMATION
PMDG Flight Operations

PFO358

At Arrival Gate

KMSP
 KORD
DATE: 2019-03-10
GATE:  -
GATE DEPARTURE: 20:59
TAKEOFF: 21:13
DATE: 2019-03-10
GATE:  -
LANDING: 22:14
GATE ARRIVAL: 22:21
FLIGHT DATA
Crew: 
Speed: 
525 kts
Altitude: 
35,002 ft
Stage Length: 
289.8 nm
Block Time: 
1.4 hrs
Flight Time: 
1 hrs
Fuel Used: 
32,257 lb
Cleared Route: KMSP RST ZZIPR KORD
TRACK DATA
50,000 ft 1,000 kts
AIRCRAFT INFO AND CUMULATIVE STATS
Aircraft Type: 
B744
Registration: 
SELCAL: 
MSN/LN: 
0 / 1
Total Flights: 
16
Total Block Time: 
54 hrs
Total Flight Time: 
30.1 hrs
Total Fuel Time: 
714,249 lb
DATALINK LOG | Newest first | Current as of: 2021-01-22 09:16:33
LABEL SEQUENCE CONTENT Dn/Up
QD212122:21 94.9▼ Dn
QC142822:14▼ Dn
2U5430KORD 102051Z 26022G35KT 10SM BKN020 02/M03 A3004 RMK AO2 PK WND 25035/2042 SLP178 T00171028 53034 $▲ Up
2S5430KORD▼ Dn
QB134821:13▼ Dn
QA594220:59 127.6▼ Dn
2U5655KMSP 101953Z 29017G27KT 10SM CLR M01/M08 A3004 RMK AO2 PK WND 26033/1922 SLP181 T10111083▲ Up
2U5601KORD 101951Z 24018G29KT 10SM OVC019 01/M03 A3000 RMK AO2 PK WND 25031/1910 SLP165 T00061028 $▲ Up
2S5655KMSP▼ Dn
2S5601KORD▼ Dn
A35208CLEARED TO KORD VIA RST ZZIPR FYTTE5. SQUAWK 1141.▲ Up
Q05055[LINK ACK]▲ Up
Q04902[LINK TEST]▼ Dn


AIRCRAFT HISTORY
FLIGHT DATE FLIGHT NO. ORIGIN DESTINATION CLEARED ROUTE BLOCK TIME FLIGHT TIME FUEL USED PILOT
2020-08-15PFO2201KLAX PHNL KLAX DLREY ENNEY NAANC DARRK SUMMR PHNL5.5 hrs5.2 hrs112,111 lbRoberto Stopnicki
2020-05-15PFO515KSAN KLAX KSAN WNFLD GYWNN PADRZ CWARD MADOW SLI MERCE RW24R0.8 hrs0.4 hrs12,579 lbKyle Weber
2020-04-09PFO409KLAX KSAN KLAX SLI DANAH OCN CARIF MZB KSAN0.9 hrs0.5 hrs15,286 lbKyle Weber
2020-04-04PFO404KSAN KLAX KSAN WNFLD GYWNN PADRZ CWARD MADOW SLI KLAX0.8 hrs0.4 hrs11,959 lbKyle Weber
2020-03-26PFO326KLAX KSAN KLAX SLI DANAH OCN CARIF MZB KSAN0.7 hrs0.5 hrs12,117 lbKyle Weber
2019-11-18PFO1117KLAX KLAX SLI HUNDA RW25L0.7 hrs0.5 hrs12,600 lbKyle Weber
2019-10-06PFO1005KSAN KLAX KSAN WNFLD GYWNN PADRZ CWARD MADOW SLI KLAX0.8 hrs0.4 hrs12,034 lbKyle Weber
2019-08-30PFO830KLAX KSAN KLAX SLI DANAH OCN CARIF MZB CIJHI RW270.9 hrs0.5 hrs13,836 lbKyle Weber
2019-08-25PFO824EDDF KLAX EDDF OBOKA OLPEX NEREL DIBIR LONAM VENAS GOLVO PELET ASKAM BADGA CUTEL ODMIX FORTY OSBON 6410N 6720N 6930N 7040N 7050N 6960N BOPUT 6870N 6680N 6390N URMUD QW YQL STIGS MLP REO GASSI FMG GENNE FRA REBRG KLAX11.8 hrs11.4 hrs267,810 lbKyle Rodgers
2019-07-16PFO716KIAD EDDF KIAD RIGNZ JCOBY GRIIM SOOKI SWANN BROSS STIKY OOD DAVYS BRAND RBV YAHOO VITOL SUPRY 4650N 4940N 5130N 5120N DINIM ELSOX EVRIN NEKAP ABDUK NUMPO INLAK KONAN KOK FERDI BUPAL REMBA SPI PESOV TOBOP NIVNU RASVO PIPEP UNOKO IBVIL MANUV RAMOB ROKIM CHA EDDF7.5 hrs7.1 hrs155,523 lbKyle Rodgers
2019-04-12PFO412KORD KIAD KORD MOBIE ADIME OTENS ANEWA RIEKE DJB GAABE MAINE SPOOL AIR24 AIR MGW GIBBZ SUNYJ UDIYU MATTC IZUMI RW19L1.5 hrs1.2 hrs32,881 lb-HIDDEN-
2019-03-10PFO358KMSP KORD KMSP RST ZZIPR KORD1.4 hrs1 hrs32,257 lbGeorge
2019-02-03PFO861KFAR KMSP KFAR WINDD TIGHE BAINY LUCCY SAUGR OGLVE KAYQU ZESTY RW12R0.9 hrs0.5 hrs16,592 lbKyle Weber
2018-12-20KFAR KFAR 0 hrs0 hrs123 lbChristopher Powell
2018-12-20KFAR KFAR 0.1 hrs0 hrs840 lbChristopher Powell
2018-09-08PFO908KMSP KFAR 1.8 hrs0.8 hrs18,300 lbKyle Weber